sensor_id;sensor_type;location;lat;lon;timestamp;pressure;altitude;pressure_sealevel;temperature;humidity
71666;BME280;59503;53.486;10.196;2023-05-01T00:01:21;102087.94;;;4.05;100.00
71666;BME280;59503;53.486;10.196;2023-05-01T00:03:46;102083.47;;;4.19;100.00
71666;BME280;59503;53.486;10.196;2023-05-01T00:06:11;102080.78;;;4.19;100.00
71666;BME280;59503;53.486;10.196;2023-05-01T00:08:37;102084.50;;;4.23;100.00
71666;BME280;59503;53.486;10.196;2023-05-01T00:11:03;102079.41;;;4.21;100.00
71666;BME280;59503;53.486;10.196;2023-05-01T00:13:29;102078.47;;;4.31;100.00
71666;BME280;59503;53.486;10.196;2023-05-01T00:15:55;102066.97;;;4.25;100.00
71666;BME280;59503;53.486;10.196;2023-05-01T00:18:20;102073.50;;;4.19;100.00
71666;BME280;59503;53.486;10.196;2023-05-01T00:20:45;102068.75;;;4.11;100.00
71666;BME280;59503;53.486;10.196;2023-05-01T00:23:11;102077.41;;;4.08;100.00
71666;BME280;59503;53.486;10.196;2023-05-01T00:25:36;102061.38;;;3.98;100.00
71666;BME280;59503;53.486;10.196;2023-05-01T00:28:03;102060.91;;;3.91;100.00
71666;BME280;59503;53.486;10.196;2023-05-01T00:30:28;102053.72;;;3.81;100.00
71666;BME280;59503;53.486;10.196;2023-05-01T00:32:53;102062.94;;;3.75;100.00
71666;BME280;59503;53.486;10.196;2023-05-01T00:35:19;102056.56;;;3.66;100.00
71666;BME280;59503;53.486;10.196;2023-05-01T00:37:44;102057.41;;;3.62;100.00
71666;BME280;59503;53.486;10.196;2023-05-01T00:40:09;102047.28;;;3.54;100.00
71666;BME280;59503;53.486;10.196;2023-05-01T00:42:36;102044.13;;;3.47;100.00
71666;BME280;59503;53.486;10.196;2023-05-01T00:45:06;102048.44;;;3.43;100.00
71666;BME280;59503;53.486;10.196;2023-05-01T00:47:34;102046.59;;;3.38;100.00
71666;BME280;59503;53.486;10.196;2023-05-01T00:49:59;102042.38;;;3.32;100.00
71666;BME280;59503;53.486;10.196;2023-05-01T00:52:25;102033.28;;;3.23;100.00
71666;BME280;59503;53.486;10.196;2023-05-01T00:54:51;102037.03;;;3.27;100.00
71666;BME280;59503;53.486;10.196;2023-05-01T00:57:19;102042.69;;;3.26;100.00
71666;BME280;59503;53.486;10.196;2023-05-01T00:59:44;102034.69;;;3.21;100.00
71666;BME280;59503;53.486;10.196;2023-05-01T01:02:10;102036.03;;;3.18;100.00
71666;BME280;59503;53.486;10.196;2023-05-01T01:04:37;102036.03;;;3.18;100.00
71666;BME280;59503;53.486;10.196;2023-05-01T01:07:10;102031.22;;;3.15;100.00
71666;BME280;59503;53.486;10.196;2023-05-01T01:09:55;102026.41;;;3.12;100.00
71666;BME280;59503;53.486;10.196;2023-05-01T01:15:25;102035.84;;;3.38;100.00
71666;BME280;59503;53.486;10.196;2023-05-01T01:21:12;102036.06;;;3.47;100.00
71666;BME280;59503;53.486;10.196;2023-05-01T01:23:42;102034.09;;;3.57;100.00
71666;BME280;59503;53.486;10.196;2023-05-01T01:31:32;102021.97;;;3.83;100.00
71666;BME280;59503;53.486;10.196;2023-05-01T01:34:02;102026.84;;;3.81;100.00
71666;BME280;59503;53.486;10.196;2023-05-01T01:36:39;102020.03;;;3.89;100.00
71666;BME280;59503;53.486;10.196;2023-05-01T01:39:12;102012.84;;;4.08;100.00
71666;BME280;59503;53.486;10.196;2023-05-01T01:41:39;102020.03;;;4.13;100.00
71666;BME280;59503;53.486;10.196;2023-05-01T01:44:11;102018.88;;;4.19;100.00
71666;BME280;59503;53.486;10.196;2023-05-01T01:46:41;102009.22;;;4.18;100.00
71666;BME280;59503;53.486;10.196;2023-05-01T01:49:12;102013.66;;;4.27;100.00
71666;BME280;59503;53.486;10.196;2023-05-01T01:51:40;102009.47;;;4.40;100.00
71666;BME280;59503;53.486;10.196;2023-05-01T01:54:06;102005.09;;;4.44;100.00
71666;BME280;59503;53.486;10.196;2023-05-01T01:56:34;102007.94;;;4.52;100.00
71666;BME280;59503;53.486;10.196;2023-05-01T01:59:03;102002.78;;;4.56;100.00
71666;BME280;59503;53.486;10.196;2023-05-01T02:01:29;102003.97;;;4.50;100.00
71666;BME280;59503;53.486;10.196;2023-05-01T02:03:55;102002.50;;;4.57;100.00
71666;BME280;59503;53.486;10.196;2023-05-01T02:06:22;101993.03;;;4.60;100.00
71666;BME280;59503;53.486;10.196;2023-05-01T02:08:50;102000.31;;;4.59;100.00
71666;BME280;59503;53.486;10.196;2023-05-01T02:11:18;102000.97;;;4.51;100.00
71666;BME280;59503;53.486;10.196;2023-05-01T02:13:46;101988.59;;;4.50;100.00
71666;BME280;59503;53.486;10.196;2023-05-01T02:16:13;101990.28;;;4.65;100.00
71666;BME280;59503;53.486;10.196;2023-05-01T02:18:41;101980.94;;;4.57;100.00
71666;BME280;59503;53.486;10.196;2023-05-01T02:21:08;101979.66;;;4.55;100.00
71666;BME280;59503;53.486;10.196;2023-05-01T02:23:36;101987.56;;;4.46;100.00
71666;BME280;59503;53.486;10.196;2023-05-01T02:26:03;101988.31;;;4.52;100.00
71666;BME280;59503;53.486;10.196;2023-05-01T02:28:29;101970.09;;;4.44;100.00
71666;BME280;59503;53.486;10.196;2023-05-01T02:30:54;101967.34;;;4.49;100.00
71666;BME280;59503;53.486;10.196;2023-05-01T02:33:21;101967.03;;;4.50;100.00
71666;BME280;59503;53.486;10.196;2023-05-01T02:35:46;101964.22;;;4.42;100.00
71666;BME280;59503;53.486;10.196;2023-05-01T02:38:15;101970.09;;;4.44;100.00
71666;BME280;59503;53.486;10.196;2023-05-01T02:40:44;101960.22;;;4.39;100.00
71666;BME280;59503;53.486;10.196;2023-05-01T02:43:12;101970.25;;;4.34;100.00
71666;BME280;59503;53.486;10.196;2023-05-01T02:45:39;101955.50;;;4.31;100.00
71666;BME280;59503;53.486;10.196;2023-05-01T02:48:08;101962.31;;;4.24;100.00
71666;BME280;59503;53.486;10.196;2023-05-01T02:50:35;101957.06;;;4.14;100.00
71666;BME280;59503;53.486;10.196;2023-05-01T02:53:05;101953.13;;;4.06;100.00
71666;BME280;59503;53.486;10.196;2023-05-01T02:55:31;101953.84;;;4.12;100.00
71666;BME280;59503;53.486;10.196;2023-05-01T02:57:58;101948.75;;;4.10;100.00
71666;BME280;59503;53.486;10.196;2023-05-01T03:00:26;101945.34;;;4.05;100.00
71666;BME280;59503;53.486;10.196;2023-05-01T03:02:52;101935.16;;;4.02;100.00
71666;BME280;59503;53.486;10.196;2023-05-01T03:05:17;101938.88;;;4.06;100.00
71666;BME280;59503;53.486;10.196;2023-05-01T03:07:44;101938.34;;;4.04;100.00
71666;BME280;59503;53.486;10.196;2023-05-01T03:10:09;101933.56;;;4.01;100.00
71666;BME280;59503;53.486;10.196;2023-05-01T03:12:35;101929.44;;;4.08;100.00
71666;BME280;59503;53.486;10.196;2023-05-01T03:15:00;101937.44;;;4.13;100.00
71666;BME280;59503;53.486;10.196;2023-05-01T03:17:26;101938.22;;;4.14;100.00
71666;BME280;59503;53.486;10.196;2023-05-01T03:19:51;101935.59;;;4.09;100.00
71666;BME280;59503;53.486;10.196;2023-05-01T03:22:16;101930.88;;;4.19;100.00
71666;BME280;59503;53.486;10.196;2023-05-01T03:24:42;101934.63;;;4.23;100.00
71666;BME280;59503;53.486;10.196;2023-05-01T03:27:08;101927.47;;;4.14;100.00
71666;BME280;59503;53.486;10.196;2023-05-01T03:29:34;101931.09;;;4.04;100.00
71666;BME280;59503;53.486;10.196;2023-05-01T03:31:59;101920.25;;;3.91;100.00
71666;BME280;59503;53.486;10.196;2023-05-01T03:34:25;101923.63;;;3.77;100.00
71666;BME280;59503;53.486;10.196;2023-05-01T03:36:51;101913.56;;;3.64;100.00
71666;BME280;59503;53.486;10.196;2023-05-01T03:39:17;101918.44;;;3.62;100.00
71666;BME280;59503;53.486;10.196;2023-05-01T03:41:42;101906.28;;;3.65;100.00
71666;BME280;59503;53.486;10.196;2023-05-01T03:44:07;101907.50;;;3.77;100.00
71666;BME280;59503;53.486;10.196;2023-05-01T03:46:32;101903.41;;;3.80;100.00
71666;BME280;59503;53.486;10.196;2023-05-01T03:48:58;101906.97;;;3.75;100.00
71666;BME280;59503;53.486;10.196;2023-05-01T03:51:23;101905.38;;;3.74;100.00
71666;BME280;59503;53.486;10.196;2023-05-01T03:53:49;101894.00;;;3.83;100.00
71666;BME280;59503;53.486;10.196;2023-05-01T03:56:16;101890.13;;;3.89;100.00
71666;BME280;59503;53.486;10.196;2023-05-01T03:58:42;101893.63;;;3.89;100.00
71666;BME280;59503;53.486;10.196;2023-05-01T04:01:07;101890.22;;;4.02;100.00
71666;BME280;59503;53.486;10.196;2023-05-01T04:03:33;101884.94;;;4.16;100.00
71666;BME280;59503;53.486;10.196;2023-05-01T04:05:58;101894.19;;;4.28;100.00
71666;BME280;59503;53.486;10.196;2023-05-01T04:08:23;101891.72;;;4.32;100.00
71666;BME280;59503;53.486;10.196;2023-05-01T04:10:49;101886.81;;;4.34;100.00
71666;BME280;59503;53.486;10.196;2023-05-01T04:13:14;101883.03;;;4.35;100.00
71666;BME280;59503;53.486;10.196;2023-05-01T04:15:43;101877.59;;;4.40;100.00
71666;BME280;59503;53.486;10.196;2023-05-01T04:18:09;101880.78;;;4.42;100.00
71666;BME280;59503;53.486;10.196;2023-05-01T04:20:34;101878.00;;;4.47;100.00
71666;BME280;59503;53.486;10.196;2023-05-01T04:23:00;101879.66;;;4.61;100.00
71666;BME280;59503;53.486;10.196;2023-05-01T04:25:25;101865.16;;;4.57;100.00
71666;BME280;59503;53.486;10.196;2023-05-01T04:27:51;101869.69;;;4.62;100.00
71666;BME280;59503;53.486;10.196;2023-05-01T04:30:16;101856.22;;;4.62;100.00
71666;BME280;59503;53.486;10.196;2023-05-01T04:32:42;101867.41;;;4.69;100.00
71666;BME280;59503;53.486;10.196;2023-05-01T04:35:07;101870.19;;;4.64;100.00
71666;BME280;59503;53.486;10.196;2023-05-01T04:37:33;101872.00;;;4.68;100.00
71666;BME280;59503;53.486;10.196;2023-05-01T04:39:59;101864.63;;;4.74;100.00
71666;BME280;59503;53.486;10.196;2023-05-01T04:42:31;101863.88;;;4.87;100.00
71666;BME280;59503;53.486;10.196;2023-05-01T04:44:57;101845.13;;;4.82;100.00
71666;BME280;59503;53.486;10.196;2023-05-01T04:47:26;101861.00;;;4.97;100.00
71666;BME280;59503;53.486;10.196;2023-05-01T04:49:51;101850.91;;;5.02;100.00
71666;BME280;59503;53.486;10.196;2023-05-01T04:52:16;101846.34;;;5.03;100.00
71666;BME280;59503;53.486;10.196;2023-05-01T04:54:41;101861.25;;;5.14;100.00
71666;BME280;59503;53.486;10.196;2023-05-01T04:57:07;101853.16;;;5.14;100.00
71666;BME280;59503;53.486;10.196;2023-05-01T04:59:32;101866.53;;;5.19;100.00
71666;BME280;59503;53.486;10.196;2023-05-01T05:01:58;101857.25;;;5.25;100.00
71666;BME280;59503;53.486;10.196;2023-05-01T05:04:23;101863.44;;;5.39;100.00
71666;BME280;59503;53.486;10.196;2023-05-01T05:06:48;101852.56;;;5.44;100.00
71666;BME280;59503;53.486;10.196;2023-05-01T05:09:14;101855.94;;;5.50;100.00
71666;BME280;59503;53.486;10.196;2023-05-01T05:11:39;101861.94;;;5.60;100.00
71666;BME280;59503;53.486;10.196;2023-05-01T05:14:05;101861.53;;;5.67;100.00
71666;BME280;59503;53.486;10.196;2023-05-01T05:16:30;101861.00;;;5.78;100.00
71666;BME280;59503;53.486;10.196;2023-05-01T05:18:56;101855.44;;;5.88;99.03
71666;BME280;59503;53.486;10.196;2023-05-01T05:21:22;101853.13;;;5.95;99.35
71666;BME280;59503;53.486;10.196;2023-05-01T05:23:47;101852.59;;;6.07;98.87
71666;BME280;59503;53.486;10.196;2023-05-01T05:26:12;101861.25;;;6.17;97.27
71666;BME280;59503;53.486;10.196;2023-05-01T05:28:37;101858.81;;;6.29;97.50
71666;BME280;59503;53.486;10.196;2023-05-01T05:31:03;101847.28;;;6.38;97.13
71666;BME280;59503;53.486;10.196;2023-05-01T05:33:28;101858.84;;;6.52;96.38
71666;BME280;59503;53.486;10.196;2023-05-01T05:35:53;101854.53;;;6.51;95.96
71666;BME280;59503;53.486;10.196;2023-05-01T05:38:19;101845.88;;;6.62;95.42
71666;BME280;59503;53.486;10.196;2023-05-01T05:40:44;101841.75;;;6.65;95.17
71666;BME280;59503;53.486;10.196;2023-05-01T05:43:10;101841.41;;;6.58;95.56
71666;BME280;59503;53.486;10.196;2023-05-01T05:45:36;101839.06;;;6.65;96.23
71666;BME280;59503;53.486;10.196;2023-05-01T05:48:02;101843.59;;;6.78;96.67
71666;BME280;59503;53.486;10.196;2023-05-01T05:50:27;101832.16;;;6.81;94.93
71666;BME280;59503;53.486;10.196;2023-05-01T05:52:54;101839.25;;;6.99;93.80
71666;BME280;59503;53.486;10.196;2023-05-01T05:55:19;101837.69;;;7.06;93.61
71666;BME280;59503;53.486;10.196;2023-05-01T05:57:44;101846.06;;;7.27;93.36
71666;BME280;59503;53.486;10.196;2023-05-01T06:00:10;101834.63;;;7.30;92.14
71666;BME280;59503;53.486;10.196;2023-05-01T06:02:36;101830.69;;;7.44;92.30
71666;BME280;59503;53.486;10.196;2023-05-01T06:05:02;101833.59;;;7.56;91.79
71666;BME280;59503;53.486;10.196;2023-05-01T06:07:27;101825.66;;;7.69;89.14
71666;BME280;59503;53.486;10.196;2023-05-01T06:09:53;101827.13;;;8.00;88.19
71666;BME280;59503;53.486;10.196;2023-05-01T06:12:19;101830.19;;;8.33;87.62
71666;BME280;59503;53.486;10.196;2023-05-01T06:14:44;101822.03;;;8.58;86.47
71666;BME280;59503;53.486;10.196;2023-05-01T06:17:09;101814.81;;;8.71;81.67
71666;BME280;59503;53.486;10.196;2023-05-01T06:19:36;101828.81;;;8.90;81.08
71666;BME280;59503;53.486;10.196;2023-05-01T06:22:01;101823.78;;;9.09;79.91
71666;BME280;59503;53.486;10.196;2023-05-01T06:24:26;101816.94;;;9.41;81.37
71666;BME280;59503;53.486;10.196;2023-05-01T06:26:52;101821.69;;;9.73;77.82
71666;BME280;59503;53.486;10.196;2023-05-01T06:29:18;101812.59;;;9.77;74.77
71666;BME280;59503;53.486;10.196;2023-05-01T06:31:43;101824.03;;;9.83;76.27
71666;BME280;59503;53.486;10.196;2023-05-01T06:34:09;101813.25;;;9.95;75.13
71666;BME280;59503;53.486;10.196;2023-05-01T06:36:34;101813.50;;;10.02;73.86
71666;BME280;59503;53.486;10.196;2023-05-01T06:38:59;101812.47;;;10.15;73.98
71666;BME280;59503;53.486;10.196;2023-05-01T06:41:25;101807.88;;;10.07;69.83
71666;BME280;59503;53.486;10.196;2023-05-01T06:43:51;101805.66;;;10.09;72.90
71666;BME280;59503;53.486;10.196;2023-05-01T06:46:16;101807.91;;;10.28;69.50
71666;BME280;59503;53.486;10.196;2023-05-01T06:48:42;101802.50;;;10.40;66.15
71666;BME280;59503;53.486;10.196;2023-05-01T06:51:07;101798.06;;;10.35;68.52
71666;BME280;59503;53.486;10.196;2023-05-01T06:53:32;101794.06;;;10.53;67.01
71666;BME280;59503;53.486;10.196;2023-05-01T06:55:58;101795.72;;;10.78;66.56
71666;BME280;59503;53.486;10.196;2023-05-01T06:58:23;101797.00;;;11.05;67.70
71666;BME280;59503;53.486;10.196;2023-05-01T07:00:49;101786.00;;;11.13;64.76
71666;BME280;59503;53.486;10.196;2023-05-01T07:03:14;101791.78;;;11.12;64.12
71666;BME280;59503;53.486;10.196;2023-05-01T07:05:39;101787.81;;;11.21;62.57
71666;BME280;59503;53.486;10.196;2023-05-01T07:08:05;101791.06;;;11.63;63.89
71666;BME280;59503;53.486;10.196;2023-05-01T07:10:31;101782.72;;;11.32;61.59
71666;BME280;59503;53.486;10.196;2023-05-01T07:12:56;101785.63;;;11.39;61.69
71666;BME280;59503;53.486;10.196;2023-05-01T07:15:21;101782.31;;;11.58;61.89
71666;BME280;59503;53.486;10.196;2023-05-01T07:17:48;101769.06;;;11.44;63.41
71666;BME280;59503;53.486;10.196;2023-05-01T07:20:14;101780.03;;;11.96;63.06
71666;BME280;59503;53.486;10.196;2023-05-01T07:22:41;101779.41;;;12.30;60.92
71666;BME280;59503;53.486;10.196;2023-05-01T07:25:06;101777.81;;;12.72;58.52
71666;BME280;59503;53.486;10.196;2023-05-01T07:27:32;101777.47;;;12.58;58.55
71666;BME280;59503;53.486;10.196;2023-05-01T07:29:59;101760.84;;;12.63;59.19
71666;BME280;59503;53.486;10.196;2023-05-01T07:32:24;101765.34;;;12.87;56.97
71666;BME280;59503;53.486;10.196;2023-05-01T07:34:50;101766.53;;;13.01;57.30
71666;BME280;59503;53.486;10.196;2023-05-01T07:37:15;101756.72;;;13.00;56.31
71666;BME280;59503;53.486;10.196;2023-05-01T07:39:41;101759.28;;;13.24;57.25
71666;BME280;59503;53.486;10.196;2023-05-01T07:42:06;101754.94;;;13.39;54.26
71666;BME280;59503;53.486;10.196;2023-05-01T07:44:32;101753.31;;;13.03;55.15
71666;BME280;59503;53.486;10.196;2023-05-01T07:47:03;101748.53;;;13.16;55.30
71666;BME280;59503;53.486;10.196;2023-05-01T07:49:34;101747.47;;;12.89;55.63
71666;BME280;59503;53.486;10.196;2023-05-01T07:51:59;101742.78;;;13.36;56.89
71666;BME280;59503;53.486;10.196;2023-05-01T07:54:25;101737.72;;;13.73;55.57
71666;BME280;59503;53.486;10.196;2023-05-01T07:56:50;101734.72;;;14.16;55.14
71666;BME280;59503;53.486;10.196;2023-05-01T07:59:15;101729.91;;;14.29;54.21
71666;BME280;59503;53.486;10.196;2023-05-01T08:01:40;101723.59;;;14.92;53.67
71666;BME280;59503;53.486;10.196;2023-05-01T08:04:06;101723.88;;;15.10;51.71
71666;BME280;59503;53.486;10.196;2023-05-01T08:06:31;101724.06;;;14.98;50.03
71666;BME280;59503;53.486;10.196;2023-05-01T08:08:57;101717.84;;;15.27;49.59
71666;BME280;59503;53.486;10.196;2023-05-01T08:11:22;101718.88;;;15.42;50.01
71666;BME280;59503;53.486;10.196;2023-05-01T08:13:49;101715.28;;;15.64;49.10
71666;BME280;59503;53.486;10.196;2023-05-01T08:16:14;101728.41;;;15.51;49.81
71666;BME280;59503;53.486;10.196;2023-05-01T08:18:39;101724.59;;;15.59;48.71
71666;BME280;59503;53.486;10.196;2023-05-01T08:21:05;101716.19;;;15.45;47.99
71666;BME280;59503;53.486;10.196;2023-05-01T08:23:30;101713.81;;;15.73;47.86
71666;BME280;59503;53.486;10.196;2023-05-01T08:25:55;101708.97;;;16.26;47.80
71666;BME280;59503;53.486;10.196;2023-05-01T08:28:22;101713.88;;;15.77;48.60
71666;BME280;59503;53.486;10.196;2023-05-01T08:30:47;101707.66;;;16.50;47.96
71666;BME280;59503;53.486;10.196;2023-05-01T08:33:16;101711.75;;;16.70;44.57
71666;BME280;59503;53.486;10.196;2023-05-01T08:35:41;101702.75;;;16.33;46.01
71666;BME280;59503;53.486;10.196;2023-05-01T08:38:06;101704.19;;;16.23;45.68
71666;BME280;59503;53.486;10.196;2023-05-01T08:40:37;101705.06;;;16.67;47.24
71666;BME280;59503;53.486;10.196;2023-05-01T08:43:03;101707.06;;;17.28;45.65
71666;BME280;59503;53.486;10.196;2023-05-01T08:45:32;101693.72;;;18.12;44.96
71666;BME280;59503;53.486;10.196;2023-05-01T08:48:04;101696.94;;;18.60;42.49
71666;BME280;59503;53.486;10.196;2023-05-01T08:50:30;101686.72;;;18.89;41.70
71666;BME280;59503;53.486;10.196;2023-05-01T08:52:58;101680.38;;;19.09;42.67
71666;BME280;59503;53.486;10.196;2023-05-01T08:55:25;101682.34;;;19.09;42.41
71666;BME280;59503;53.486;10.196;2023-05-01T08:57:51;101674.88;;;19.09;40.03
71666;BME280;59503;53.486;10.196;2023-05-01T09:00:19;101668.97;;;19.18;39.68
71666;BME280;59503;53.486;10.196;2023-05-01T09:02:46;101672.94;;;18.82;37.70
71666;BME280;59503;53.486;10.196;2023-05-01T09:05:14;101671.38;;;18.95;37.00
71666;BME280;59503;53.486;10.196;2023-05-01T09:07:39;101675.69;;;18.99;36.38
71666;BME280;59503;53.486;10.196;2023-05-01T09:10:05;101663.34;;;19.53;37.99
71666;BME280;59503;53.486;10.196;2023-05-01T09:12:32;101663.19;;;19.92;35.74
71666;BME280;59503;53.486;10.196;2023-05-01T09:15:01;101668.13;;;20.21;35.48
71666;BME280;59503;53.486;10.196;2023-05-01T09:17:26;101666.59;;;20.20;34.11
71666;BME280;59503;53.486;10.196;2023-05-01T09:19:55;101658.38;;;18.92;34.92
71666;BME280;59503;53.486;10.196;2023-05-01T09:22:20;101646.91;;;19.14;35.87
71666;BME280;59503;53.486;10.196;2023-05-01T09:24:46;101651.69;;;18.93;35.59
71666;BME280;59503;53.486;10.196;2023-05-01T09:27:11;101646.09;;;19.17;35.05
71666;BME280;59503;53.486;10.196;2023-05-01T09:32:17;101646.97;;;18.83;36.07
71666;BME280;59503;53.486;10.196;2023-05-01T09:34:49;101633.22;;;18.40;35.95
71666;BME280;59503;53.486;10.196;2023-05-01T09:37:32;101635.59;;;18.45;37.42
71666;BME280;59503;53.486;10.196;2023-05-01T09:40:08;101632.38;;;19.07;36.06
71666;BME280;59503;53.486;10.196;2023-05-01T09:42:54;101634.69;;;19.29;36.16
71666;BME280;59503;53.486;10.196;2023-05-01T09:45:22;101634.69;;;19.19;34.70
71666;BME280;59503;53.486;10.196;2023-05-01T09:47:48;101625.59;;;19.29;35.68
71666;BME280;59503;53.486;10.196;2023-05-01T09:50:33;101621.09;;;19.77;35.70
71666;BME280;59503;53.486;10.196;2023-05-01T09:53:02;101625.75;;;19.87;33.63
71666;BME280;59503;53.486;10.196;2023-05-01T09:55:29;101614.97;;;19.38;33.81
71666;BME280;59503;53.486;10.196;2023-05-01T09:57:55;101613.00;;;19.42;34.12
71666;BME280;59503;53.486;10.196;2023-05-01T10:00:20;101608.69;;;19.30;33.84
71666;BME280;59503;53.486;10.196;2023-05-01T10:02:47;101607.19;;;19.05;36.41
71666;BME280;59503;53.486;10.196;2023-05-01T10:05:13;101603.94;;;19.20;34.30
71666;BME280;59503;53.486;10.196;2023-05-01T10:07:54;101601.44;;;19.61;34.05
71666;BME280;59503;53.486;10.196;2023-05-01T10:10:21;101595.63;;;19.48;34.27
71666;BME280;59503;53.486;10.196;2023-05-01T10:12:47;101592.88;;;19.45;32.93
71666;BME280;59503;53.486;10.196;2023-05-01T10:15:13;101599.25;;;20.00;33.38
71666;BME280;59503;53.486;10.196;2023-05-01T10:17:40;101599.06;;;20.28;34.05
71666;BME280;59503;53.486;10.196;2023-05-01T10:20:07;101595.19;;;20.22;34.04
71666;BME280;59503;53.486;10.196;2023-05-01T10:22:33;101584.22;;;20.56;32.65
71666;BME280;59503;53.486;10.196;2023-05-01T10:24:59;101582.00;;;20.40;32.96
71666;BME280;59503;53.486;10.196;2023-05-01T10:27:25;101586.97;;;20.08;30.58
71666;BME280;59503;53.486;10.196;2023-05-01T10:29:52;101585.75;;;20.60;31.78
71666;BME280;59503;53.486;10.196;2023-05-01T10:32:18;101575.75;;;21.11;30.69
71666;BME280;59503;53.486;10.196;2023-05-01T10:34:48;101576.94;;;21.43;31.15
71666;BME280;59503;53.486;10.196;2023-05-01T10:37:18;101571.91;;;21.05;29.80
71666;BME280;59503;53.486;10.196;2023-05-01T10:39:47;101571.34;;;20.42;31.70
71666;BME280;59503;53.486;10.196;2023-05-01T10:42:12;101554.13;;;20.65;31.99
71666;BME280;59503;53.486;10.196;2023-05-01T10:44:40;101556.41;;;20.73;31.92
71666;BME280;59503;53.486;10.196;2023-05-01T10:50:07;101558.84;;;20.68;29.86
71666;BME280;59503;53.486;10.196;2023-05-01T10:55:36;101536.53;;;20.04;31.13
71666;BME280;59503;53.486;10.196;2023-05-01T10:58:02;101545.28;;;20.43;31.43
71666;BME280;59503;53.486;10.196;2023-05-01T11:00:28;101539.09;;;20.69;30.23
71666;BME280;59503;53.486;10.196;2023-05-01T11:08:37;101528.19;;;20.55;31.75
71666;BME280;59503;53.486;10.196;2023-05-01T11:16:43;101520.56;;;19.78;31.66
71666;BME280;59503;53.486;10.196;2023-05-01T11:21:44;101503.47;;;20.41;32.13
71666;BME280;59503;53.486;10.196;2023-05-01T11:24:11;101503.19;;;21.03;29.74
71666;BME280;59503;53.486;10.196;2023-05-01T11:26:38;101504.19;;;21.46;31.31
71666;BME280;59503;53.486;10.196;2023-05-01T11:29:05;101505.44;;;21.95;28.76
71666;BME280;59503;53.486;10.196;2023-05-01T11:31:31;101498.97;;;20.91;28.73
71666;BME280;59503;53.486;10.196;2023-05-01T11:33:57;101506.88;;;20.56;30.54
71666;BME280;59503;53.486;10.196;2023-05-01T11:36:23;101507.44;;;20.40;29.94
71666;BME280;59503;53.486;10.196;2023-05-01T11:38:50;101489.09;;;20.90;29.90
71666;BME280;59503;53.486;10.196;2023-05-01T11:41:19;101480.91;;;21.14;30.10
71666;BME280;59503;53.486;10.196;2023-05-01T11:43:56;101488.13;;;21.08;29.57
71666;BME280;59503;53.486;10.196;2023-05-01T11:46:27;101483.44;;;21.58;28.80
71666;BME280;59503;53.486;10.196;2023-05-01T11:48:58;101472.00;;;21.56;29.68
71666;BME280;59503;53.486;10.196;2023-05-01T11:51:24;101477.69;;;21.72;27.67
71666;BME280;59503;53.486;10.196;2023-05-01T11:54:01;101451.34;;;21.37;27.91
71666;BME280;59503;53.486;10.196;2023-05-01T11:56:28;101462.94;;;21.82;28.29
71666;BME280;59503;53.486;10.196;2023-05-01T11:58:58;101462.56;;;21.53;27.19
71666;BME280;59503;53.486;10.196;2023-05-01T12:01:34;101467.09;;;21.67;27.69
71666;BME280;59503;53.486;10.196;2023-05-01T12:04:01;101456.88;;;21.11;29.21
71666;BME280;59503;53.486;10.196;2023-05-01T12:06:44;101457.75;;;21.57;28.73
71666;BME280;59503;53.486;10.196;2023-05-01T12:09:18;101455.13;;;21.73;28.20
71666;BME280;59503;53.486;10.196;2023-05-01T12:11:45;101442.50;;;22.18;28.28
71666;BME280;59503;53.486;10.196;2023-05-01T12:14:11;101446.38;;;22.01;27.28
71666;BME280;59503;53.486;10.196;2023-05-01T12:16:38;101442.66;;;21.88;27.86
71666;BME280;59503;53.486;10.196;2023-05-01T12:19:07;101446.41;;;22.21;28.74
71666;BME280;59503;53.486;10.196;2023-05-01T12:21:33;101447.97;;;23.20;28.53
71666;BME280;59503;53.486;10.196;2023-05-01T12:24:13;101436.91;;;23.52;27.40
71666;BME280;59503;53.486;10.196;2023-05-01T12:26:40;101432.00;;;23.60;26.74
71666;BME280;59503;53.486;10.196;2023-05-01T12:29:06;101422.19;;;23.55;26.08
71666;BME280;59503;53.486;10.196;2023-05-01T12:31:33;101421.94;;;23.50;26.67
71666;BME280;59503;53.486;10.196;2023-05-01T12:34:00;101430.50;;;24.03;26.38
71666;BME280;59503;53.486;10.196;2023-05-01T12:36:28;101430.22;;;24.14;25.92
71666;BME280;59503;53.486;10.196;2023-05-01T12:38:59;101421.56;;;23.80;26.87
71666;BME280;59503;53.486;10.196;2023-05-01T12:41:35;101421.56;;;23.48;26.75
71666;BME280;59503;53.486;10.196;2023-05-01T12:44:00;101417.50;;;24.00;27.90
71666;BME280;59503;53.486;10.196;2023-05-01T12:46:26;101420.13;;;24.48;27.83
71666;BME280;59503;53.486;10.196;2023-05-01T12:48:52;101421.38;;;24.60;26.30
71666;BME280;59503;53.486;10.196;2023-05-01T12:51:21;101416.22;;;24.46;27.09
71666;BME280;59503;53.486;10.196;2023-05-01T12:53:47;101409.69;;;24.24;26.48
71666;BME280;59503;53.486;10.196;2023-05-01T12:56:23;101403.94;;;24.02;26.57
71666;BME280;59503;53.486;10.196;2023-05-01T12:58:52;101404.03;;;23.99;28.10
71666;BME280;59503;53.486;10.196;2023-05-01T13:01:25;101399.75;;;22.78;27.81
71666;BME280;59503;53.486;10.196;2023-05-01T13:03:51;101391.09;;;22.37;27.53
71666;BME280;59503;53.486;10.196;2023-05-01T13:06:17;101390.50;;;22.06;28.03
71666;BME280;59503;53.486;10.196;2023-05-01T13:08:42;101381.56;;;21.99;28.56
71666;BME280;59503;53.486;10.196;2023-05-01T13:11:10;101382.66;;;22.64;28.24
71666;BME280;59503;53.486;10.196;2023-05-01T13:13:37;101375.72;;;22.91;28.35